Time;durP1;ratioP1;P1;durP2;ratioP2;P2;SDS_P1;SDS_P2;PMS_P1;PMS_P2;Temp;Humidity;BMP_temperature;BMP_pressure;BME280_temperature;BME280_humidity;BME280_pressure;Samples;Min_cycle;Max_cycle;Signal;HPM_P1;HPM_P2
2021/06/19 00:00:51;;;;;;;8.38;5.90;;;;;;;21.14;58.80;98251.55;1676688;83;28127;-87
2021/06/19 00:03:20;;;;;;;8.78;5.87;;;;;;;21.19;58.80;98249.19;1657051;85;28115;-87
2021/06/19 00:05:47;;;;;;;7.53;5.40;;;;;;;21.25;58.81;98256.95;1670922;85;28012;-87
2021/06/19 00:08:13;;;;;;;8.98;5.92;;;;;;;21.22;58.82;98255.47;1667593;84;28100;-87
2021/06/19 00:10:44;;;;;;;7.05;5.62;;;;;;;21.16;58.81;98248.23;1663966;84;28076;-87
2021/06/19 00:13:11;;;;;;;8.53;5.78;;;;;;;21.13;58.86;98251.69;1670549;84;28091;-86
2021/06/19 00:15:38;;;;;;;10.80;6.08;;;;;;;21.10;58.92;98248.91;1673006;84;28023;-86
2021/06/19 00:18:05;;;;;;;7.08;5.87;;;;;;;21.07;58.97;98250.57;1682100;84;28145;-87
2021/06/19 00:20:32;;;;;;;8.25;6.15;;;;;;;21.08;59.00;98253.56;1683016;84;28082;-87
2021/06/19 00:22:58;;;;;;;9.38;5.78;;;;;;;21.08;59.07;98248.74;1678554;84;28141;-87
2021/06/19 00:25:31;;;;;;;7.30;5.72;;;;;;;21.04;59.09;98253.59;1684448;84;28189;-87
2021/06/19 00:27:57;;;;;;;9.70;5.97;;;;;;;21.00;59.17;98255.47;1685184;84;28061;-86
2021/06/19 00:30:27;;;;;;;7.53;5.90;;;;;;;20.86;59.25;98257.05;1681374;83;28133;-86
2021/06/19 00:32:55;;;;;;;11.70;6.37;;;;;;;20.70;59.37;98256.64;1680955;84;28086;-87
2021/06/19 00:35:24;;;;;;;7.62;5.90;;;;;;;20.52;59.48;98253.41;1678220;84;28138;-86
2021/06/19 00:37:51;;;;;;;8.03;6.08;;;;;;;20.48;59.64;98248.63;1683713;83;28177;-87
2021/06/19 00:40:21;;;;;;;7.65;6.72;;;;;;;20.47;59.78;98254.44;1681514;83;28192;-87
2021/06/19 00:43:04;;;;;;;10.55;6.35;;;;;;;20.43;59.93;98248.65;1664639;84;28149;-87
2021/06/19 00:45:33;;;;;;;8.30;6.45;;;;;;;20.46;60.03;98246.95;1664246;84;28112;-87
2021/06/19 00:48:07;;;;;;;7.22;6.10;;;;;;;20.52;60.14;98246.77;1666925;84;28182;-87
2021/06/19 00:50:41;;;;;;;7.25;6.55;;;;;;;20.55;60.29;98242.94;1687591;83;28023;-86
2021/06/19 00:53:10;;;;;;;6.42;5.60;;;;;;;20.59;60.34;98248.23;1654036;86;28008;-87
2021/06/19 00:55:38;;;;;;;8.93;5.25;;;;;;;20.65;60.40;98254.19;1653532;85;28176;-86
2021/06/19 00:58:06;;;;;;;7.47;5.75;;;;;;;20.69;60.39;98254.16;1692760;83;28208;-87
2021/06/19 01:00:33;;;;;;;9.15;4.95;;;;;;;20.74;60.41;98251.79;1662037;85;28081;-87
2021/06/19 01:03:00;;;;;;;7.00;5.20;;;;;;;20.79;60.40;98251.59;1677605;84;28178;-87
2021/06/19 01:05:31;;;;;;;7.72;5.78;;;;;;;20.82;60.37;98257.91;1685549;84;28074;-86
2021/06/19 01:08:03;;;;;;;5.95;5.30;;;;;;;20.82;60.35;98255.74;1668006;84;28152;-86
2021/06/19 01:10:47;;;;;;;5.85;5.25;;;;;;;20.71;60.37;98264.13;1684912;84;28148;-86
2021/06/19 01:13:14;;;;;;;7.05;6.17;;;;;;;20.61;60.42;98256.88;1681023;83;28243;-87
2021/06/19 01:15:47;;;;;;;6.00;5.10;;;;;;;20.47;60.47;98267.73;1680638;84;28085;-87
2021/06/19 01:18:14;;;;;;;5.67;5.17;;;;;;;20.34;60.56;98264.32;1682233;83;27995;-87
2021/06/19 01:20:42;;;;;;;8.25;6.03;;;;;;;20.26;60.69;98260.31;1687324;84;28090;-86
2021/06/19 01:23:13;;;;;;;6.55;4.90;;;;;;;20.23;60.86;98254.53;1677267;84;28101;-86
2021/06/19 01:25:40;;;;;;;5.80;5.20;;;;;;;20.26;60.98;98260.31;1679269;83;28126;-86
2021/06/19 01:28:14;;;;;;;8.48;5.50;;;;;;;20.38;61.05;98256.81;1684178;83;28077;-86
2021/06/19 01:30:47;;;;;;;7.10;5.15;;;;;;;20.48;61.10;98256.59;1684143;84;28081;-86
2021/06/19 01:33:13;;;;;;;5.75;4.87;;;;;;;20.40;61.11;98248.18;1683985;83;28069;-87
2021/06/19 01:35:41;;;;;;;6.62;5.92;;;;;;;20.29;61.18;98252.52;1683462;83;28098;-87
2021/06/19 01:38:13;;;;;;;7.55;5.25;;;;;;;20.19;61.23;98248.70;1678231;84;28101;-87
2021/06/19 01:40:40;;;;;;;7.30;5.30;;;;;;;20.08;61.34;98253.06;1678258;83;28104;-88
2021/06/19 01:43:06;;;;;;;6.95;5.60;;;;;;;20.02;61.47;98242.63;1684825;82;28094;-86
2021/06/19 01:45:35;;;;;;;8.18;6.00;;;;;;;20.10;61.58;98239.13;1683796;83;28055;-87
2021/06/19 01:48:16;;;;;;;6.42;5.30;;;;;;;20.18;61.63;98239.61;1688943;84;28116;-87
2021/06/19 01:50:44;;;;;;;6.95;6.17;;;;;;;20.26;61.65;98247.03;1686105;83;28121;-87
2021/06/19 01:53:11;;;;;;;7.60;5.55;;;;;;;20.28;61.67;98243.71;1683403;84;28078;-87
2021/06/19 01:55:45;;;;;;;7.42;5.90;;;;;;;20.24;61.71;98245.53;1689026;83;28005;-87
2021/06/19 01:58:12;;;;;;;9.85;6.25;;;;;;;20.17;61.72;98245.41;1689493;83;28087;-86
2021/06/19 02:00:38;;;;;;;6.50;5.53;;;;;;;20.13;61.77;98249.39;1678263;84;28141;-87
2021/06/19 02:03:11;;;;;;;6.80;5.45;;;;;;;20.18;61.83;98248.41;1682797;83;28013;-87
2021/06/19 02:05:37;;;;;;;7.50;5.42;;;;;;;20.22;61.83;98248.38;1682360;83;28039;-86
2021/06/19 02:08:10;;;;;;;9.58;5.47;;;;;;;20.24;61.87;98251.67;1684593;83;28153;-87
2021/06/19 02:10:41;;;;;;;5.97;5.37;;;;;;;20.21;61.87;98250.70;1688500;83;28186;-87
2021/06/19 02:13:09;;;;;;;6.97;5.60;;;;;;;20.08;61.90;98247.75;1681907;83;28083;-87
2021/06/19 02:15:37;;;;;;;7.12;5.80;;;;;;;20.00;61.96;98253.11;1678101;83;28048;-87
2021/06/19 02:18:04;;;;;;;8.33;5.60;;;;;;;19.92;62.01;98253.12;1681754;84;28092;-87
2021/06/19 02:20:37;;;;;;;7.03;5.70;;;;;;;19.94;62.06;98247.15;1684320;83;28114;-87
2021/06/19 02:23:05;;;;;;;6.85;5.42;;;;;;;20.00;62.14;98251.78;1683129;83;28095;-87
2021/06/19 02:25:32;;;;;;;6.95;5.62;;;;;;;20.02;62.17;98255.08;1682346;83;28073;-89
2021/06/19 02:28:02;;;;;;;9.45;5.65;;;;;;;20.07;62.21;98258.58;1682128;84;28130;-88
2021/06/19 02:30:41;;;;;;;7.05;5.40;;;;;;;20.08;62.20;98256.22;1685304;84;28156;-88
2021/06/19 02:33:07;;;;;;;7.05;5.90;;;;;;;20.08;62.23;98255.72;1674134;84;28011;-88
2021/06/19 02:35:39;;;;;;;7.78;5.50;;;;;;;20.09;62.24;98257.88;1687753;84;28210;-88
2021/06/19 02:38:22;;;;;;;10.15;5.42;;;;;;;20.02;62.26;98253.75;1680520;83;28203;-89
2021/06/19 02:40:50;;;;;;;7.80;5.17;;;;;;;19.91;62.31;98255.47;1678687;83;28030;-89
2021/06/19 02:43:32;;;;;;;7.95;5.55;;;;;;;19.81;62.39;98254.31;1677690;83;28121;-89
2021/06/19 02:45:59;;;;;;;6.60;5.33;;;;;;;19.72;62.50;98257.16;1644405;85;28058;-88
2021/06/19 02:48:28;;;;;;;6.78;5.30;;;;;;;19.71;62.60;98258.16;1670932;84;28008;-88
2021/06/19 02:50:58;;;;;;;5.85;5.25;;;;;;;19.80;62.68;98257.95;1668086;84;28004;-88
2021/06/19 02:53:25;;;;;;;7.03;5.37;;;;;;;19.73;62.75;98259.66;1664316;84;28182;-88
2021/06/19 02:55:51;;;;;;;5.80;4.87;;;;;;;19.61;62.80;98263.65;1682566;84;28087;-88
2021/06/19 02:58:35;;;;;;;6.92;5.47;;;;;;;19.52;62.89;98260.19;1678135;83;28140;-88
2021/06/19 03:01:08;;;;;;;6.35;5.55;;;;;;;19.44;62.99;98263.30;1684783;84;28087;-89
2021/06/19 03:03:48;;;;;;;6.95;5.25;;;;;;;19.35;63.12;98265.14;1675727;84;28087;-88
2021/06/19 03:06:16;;;;;;;7.25;5.33;;;;;;;19.28;63.26;98273.42;1681380;84;28070;-88
2021/06/19 03:08:46;;;;;;;6.62;5.28;;;;;;;19.26;63.40;98265.28;1673111;84;28123;-87
2021/06/19 03:11:16;;;;;;;;;;;;;;;19.26;63.57;98264.79;1685770;84;28063;-87
2021/06/19 03:13:42;;;;;;;;;;;;;;;19.30;63.72;98267.96;1649803;85;26837;-87
2021/06/19 03:16:08;;;;;;;5.70;5.10;;;;;;;19.38;63.83;98266.62;1674745;83;24438;-87
2021/06/19 03:18:35;;;;;;;10.23;5.65;;;;;;;19.53;63.94;98261.82;1653756;85;28099;-88
2021/06/19 03:21:04;;;;;;;6.35;5.22;;;;;;;19.72;64.01;98259.32;1684061;84;28107;-87
2021/06/19 03:23:40;;;;;;;6.45;5.33;;;;;;;19.74;64.03;98265.30;1691096;83;28111;-88
2021/06/19 03:26:07;;;;;;;7.85;5.45;;;;;;;19.76;64.04;98264.61;1683766;84;28107;-88
2021/06/19 03:28:33;;;;;;;6.00;4.97;;;;;;;19.92;64.12;98260.59;1690417;84;28165;-88
2021/06/19 03:31:06;;;;;;;7.85;5.58;;;;;;;20.04;64.15;98265.05;1683699;83;28080;-87
2021/06/19 03:33:32;;;;;;;6.03;5.30;;;;;;;20.13;64.17;98259.22;1686590;84;28136;-88
2021/06/19 03:35:59;;;;;;;6.10;5.45;;;;;;;20.21;64.20;98261.84;1688791;83;28217;-88
2021/06/19 03:38:28;;;;;;;8.78;5.58;;;;;;;20.26;64.23;98261.64;1683005;83;28073;-88
2021/06/19 03:41:07;;;;;;;6.60;5.12;;;;;;;20.34;64.27;98262.98;1690460;84;28002;-88
2021/06/19 03:43:34;;;;;;;6.65;5.78;;;;;;;20.40;64.31;98265.45;1688717;84;28071;-87
2021/06/19 03:46:13;;;;;;;6.58;4.92;;;;;;;20.46;64.34;98263.41;1687481;84;28110;-87
2021/06/19 03:48:39;;;;;;;8.70;5.42;;;;;;;20.54;64.39;98258.06;1598301;86;28164;-87
2021/06/19 03:51:12;;;;;;;9.93;6.55;;;;;;;20.57;64.40;98265.67;1687303;84;28082;-87
2021/06/19 03:53:39;;;;;;;6.60;5.50;;;;;;;20.60;64.44;98260.03;1642611;85;28117;-87
2021/06/19 03:56:05;;;;;;;7.37;5.67;;;;;;;20.68;64.48;98265.78;1675032;85;28083;-87
2021/06/19 03:58:38;;;;;;;10.00;5.50;;;;;;;20.78;64.49;98262.43;1679212;84;28085;-88
2021/06/19 04:01:13;;;;;;;9.55;5.62;;;;;;;20.88;64.52;98259.03;1693149;84;28073;-88
2021/06/19 04:03:52;;;;;;;7.28;5.22;;;;;;;21.03;64.53;98258.59;1678279;84;28150;-88
2021/06/19 04:06:27;;;;;;;6.08;4.80;;;;;;;21.34;64.57;98264.36;1676947;85;28151;-88
2021/06/19 04:08:54;;;;;;;8.90;5.65;;;;;;;21.63;64.54;98257.79;1668372;84;28161;-88
2021/06/19 04:11:21;;;;;;;10.28;5.65;;;;;;;21.85;64.44;98250.23;1671665;84;28076;-88
2021/06/19 04:13:53;;;;;;;8.73;5.47;;;;;;;22.04;64.34;98247.05;1673107;84;28005;-87
2021/06/19 04:16:19;;;;;;;8.65;5.47;;;;;;;22.21;64.20;98239.69;1672355;84;28095;-88
2021/06/19 04:18:49;;;;;;;7.95;5.97;;;;;;;22.34;64.06;98245.20;1660481;85;28158;-87
2021/06/19 04:21:17;;;;;;;8.05;5.08;;;;;;;22.41;63.90;98249.28;1672434;84;28099;-88
2021/06/19 04:23:43;;;;;;;6.08;5.42;;;;;;;22.39;63.74;98249.97;1681191;84;28084;-88
2021/06/19 04:26:09;;;;;;;6.90;5.20;;;;;;;22.35;63.63;98250.03;1684885;84;28127;-88
2021/06/19 04:28:46;;;;;;;7.92;5.40;;;;;;;22.40;63.56;98256.45;1688748;83;28151;-88
2021/06/19 04:31:25;;;;;;;6.35;5.62;;;;;;;22.47;63.51;98255.21;1688064;83;28122;-88
2021/06/19 04:33:51;;;;;;;7.58;6.17;;;;;;;22.53;63.45;98249.93;1686742;84;28198;-88
2021/06/19 04:36:26;;;;;;;10.45;6.08;;;;;;;22.46;63.35;98253.55;1684693;84;28091;-88
2021/06/19 04:38:53;;;;;;;7.90;5.75;;;;;;;22.45;63.31;98250.56;1684812;84;28168;-89
2021/06/19 04:41:32;;;;;;;7.33;5.50;;;;;;;22.45;63.29;98254.56;1687077;84;28122;-88
2021/06/19 04:46:30;;;;;;;9.20;6.08;;;;;;;22.57;63.32;98261.58;1682102;84;28092;-88
2021/06/19 04:48:57;;;;;;;7.40;6.22;;;;;;;22.75;63.35;98262.84;1688146;83;28076;-88
2021/06/19 04:51:23;;;;;;;9.05;5.85;;;;;;;22.94;63.36;98259.57;1693268;84;28209;-88
2021/06/19 04:53:52;;;;;;;7.08;6.10;;;;;;;23.12;63.33;98263.14;1687736;84;28130;-88
2021/06/19 04:56:18;;;;;;;7.97;5.83;;;;;;;23.19;63.24;98264.02;1681496;84;28157;-88
2021/06/19 04:58:45;;;;;;;6.83;5.35;;;;;;;23.22;63.16;98261.48;1681904;84;28093;-88
2021/06/19 05:01:11;;;;;;;6.12;5.53;;;;;;;23.26;63.10;98268.09;1688306;84;28088;-87
2021/06/19 05:03:40;;;;;;;6.33;5.58;;;;;;;23.25;63.04;98265.09;1687203;84;28177;-87
2021/06/19 05:06:06;;;;;;;7.75;5.37;;;;;;;23.26;63.02;98269.42;1687730;84;28178;-87
2021/06/19 05:08:33;;;;;;;6.97;5.20;;;;;;;23.28;63.00;98266.06;1687519;84;28119;-87
2021/06/19 05:11:01;;;;;;;10.03;6.12;;;;;;;23.37;63.00;98268.91;1687518;84;28146;-87
2021/06/19 05:13:28;;;;;;;7.65;5.70;;;;;;;23.43;62.98;98268.14;1691558;84;28105;-87
2021/06/19 05:15:54;;;;;;;7.75;5.72;;;;;;;23.58;62.92;98271.58;1661852;84;28150;-87
2021/06/19 05:18:21;;;;;;;9.45;5.45;;;;;;;23.68;62.86;98261.88;1645052;86;28172;-87
2021/06/19 05:20:48;;;;;;;5.33;4.80;;;;;;;23.72;62.73;98259.99;1644858;85;28161;-87
2021/06/19 05:23:16;;;;;;;6.22;4.55;;;;;;;23.74;62.59;98250.42;1644068;86;28146;-87
2021/06/19 05:25:43;;;;;;;5.97;4.33;;;;;;;23.82;62.45;98254.30;1643552;86;28121;-88
2021/06/19 05:28:09;;;;;;;7.83;4.67;;;;;;;23.90;62.25;98258.64;1651160;86;28106;-88
2021/06/19 05:30:36;;;;;;;5.10;4.60;;;;;;;23.95;62.01;98261.05;1652075;85;28083;-87
2021/06/19 05:33:02;;;;;;;7.70;4.92;;;;;;;24.00;61.83;98259.14;1621926;86;28173;-87
2021/06/19 05:35:29;;;;;;;5.17;4.30;;;;;;;24.05;61.73;98259.38;1651404;85;28148;-88
2021/06/19 05:37:57;;;;;;;6.03;5.00;;;;;;;24.13;61.60;98261.88;1622595;86;28037;-87
2021/06/19 05:40:30;;;;;;;6.42;4.90;;;;;;;24.15;61.42;98262.02;1616543;86;28098;-88
2021/06/19 05:43:00;;;;;;;5.15;4.50;;;;;;;24.20;61.25;98260.62;1627467;86;28161;-90
2021/06/19 05:45:27;;;;;;;5.92;4.33;;;;;;;24.27;61.12;98258.30;1621987;86;28074;-88
2021/06/19 05:47:55;;;;;;;8.73;4.40;;;;;;;24.28;60.96;98257.25;1621144;86;28090;-88
2021/06/19 05:50:22;;;;;;;5.42;4.50;;;;;;;24.33;60.80;98265.51;1619825;86;28072;-88
2021/06/19 05:52:48;;;;;;;4.55;4.15;;;;;;;24.31;60.71;98265.41;1610240;86;28159;-88
2021/06/19 05:55:15;;;;;;;6.47;4.30;;;;;;;24.30;60.56;98259.73;1630394;86;28056;-89
2021/06/19 05:57:41;;;;;;;8.13;4.45;;;;;;;24.38;60.46;98256.91;1656212;85;28145;-88
2021/06/19 06:00:10;;;;;;;4.87;4.08;;;;;;;24.48;60.34;98260.87;1653659;85;28106;-88
2021/06/19 06:02:44;;;;;;;4.92;4.45;;;;;;;24.51;60.27;98252.94;1653810;85;28175;-89
2021/06/19 06:05:12;;;;;;;10.25;4.45;;;;;;;24.53;60.13;98255.73;1654144;84;28102;-87
2021/06/19 06:07:38;;;;;;;5.42;4.28;;;;;;;24.60;60.02;98254.44;1651886;85;28149;-88
2021/06/19 06:10:08;;;;;;;5.25;4.40;;;;;;;24.66;59.89;98256.83;1654828;85;28088;-87
2021/06/19 06:12:38;;;;;;;6.72;4.03;;;;;;;24.74;59.78;98257.45;1652621;85;28045;-88
2021/06/19 06:15:08;;;;;;;5.03;4.53;;;;;;;24.81;59.78;98258.31;1661377;85;28090;-89
2021/06/19 06:17:36;;;;;;;7.97;4.37;;;;;;;24.86;59.73;98263.05;1676156;84;28191;-87
2021/06/19 06:20:04;;;;;;;7.62;4.47;;;;;;;24.94;59.49;98259.70;1674976;84;28084;-88
2021/06/19 06:22:30;;;;;;;6.25;4.75;;;;;;;25.05;59.46;98262.80;1676821;85;28119;-88
2021/06/19 06:25:00;;;;;;;6.17;3.72;;;;;;;25.11;59.46;98265.50;1676503;84;28056;-88
2021/06/19 06:27:26;;;;;;;4.42;4.00;;;;;;;25.11;59.35;98268.69;1675724;85;28087;-88
2021/06/19 06:29:53;;;;;;;6.28;4.53;;;;;;;25.17;59.46;98259.84;1674119;83;28119;-88
2021/06/19 06:32:19;;;;;;;5.50;4.87;;;;;;;25.22;59.48;98264.90;1675794;84;28154;-88
2021/06/19 06:34:46;;;;;;;6.92;4.33;;;;;;;25.28;59.52;98258.73;1652114;84;28070;-88
2021/06/19 06:37:12;;;;;;;6.12;5.00;;;;;;;25.34;59.53;98260.59;1675626;84;28191;-89
2021/06/19 06:39:39;;;;;;;7.83;4.05;;;;;;;25.34;59.38;98260.59;1675746;83;28154;-88
2021/06/19 06:42:06;;;;;;;6.15;4.28;;;;;;;25.37;59.35;98260.17;1677663;85;28065;-88
2021/06/19 06:44:42;;;;;;;6.70;4.87;;;;;;;25.36;59.24;98252.36;1674679;85;28079;-89
2021/06/19 06:47:10;;;;;;;4.37;3.98;;;;;;;25.35;59.12;98258.73;1675203;84;27989;-88
2021/06/19 06:49:36;;;;;;;6.75;4.65;;;;;;;25.33;59.05;98248.22;1675302;84;28087;-89
2021/06/19 06:52:03;;;;;;;10.90;5.72;;;;;;;25.35;58.99;98250.19;1675901;84;28079;-89
2021/06/19 06:54:40;;;;;;;5.92;4.97;;;;;;;25.44;59.06;98246.78;1675752;85;28142;-89
2021/06/19 06:57:12;;;;;;;5.60;4.03;;;;;;;25.50;59.01;98251.31;1677419;84;28077;-88
2021/06/19 06:59:47;;;;;;;5.83;4.45;;;;;;;25.53;58.93;98247.41;1647118;85;28134;-89
2021/06/19 07:02:21;;;;;;;5.05;4.55;;;;;;;25.62;58.90;98250.22;1675436;84;28073;-88
2021/06/19 07:04:54;;;;;;;5.08;3.60;;;;;;;25.69;58.78;98243.80;1675955;84;28080;-88
2021/06/19 07:07:27;;;;;;;4.95;3.80;;;;;;;25.76;58.77;98240.60;1676009;84;28131;-89
2021/06/19 07:09:59;;;;;;;5.67;4.45;;;;;;;25.78;58.66;98247.94;1675831;85;28090;-88
2021/06/19 07:12:28;;;;;;;6.60;4.58;;;;;;;25.83;58.65;98247.30;1675184;85;28072;-89
2021/06/19 07:14:54;;;;;;;6.67;4.80;;;;;;;25.89;58.65;98247.81;1672903;85;28092;-88
2021/06/19 07:17:28;;;;;;;5.03;3.92;;;;;;;25.92;58.55;98242.02;1676158;84;28074;-88
2021/06/19 07:19:56;;;;;;;5.30;4.40;;;;;;;25.93;58.45;98234.80;1668964;83;28133;-88
2021/06/19 07:22:24;;;;;;;5.67;4.62;;;;;;;25.93;58.42;98234.28;1674015;83;28066;-89
2021/06/19 07:24:53;;;;;;;5.62;3.98;;;;;;;25.98;58.47;98235.82;1684944;84;28047;-89
2021/06/19 07:27:19;;;;;;;6.03;3.98;;;;;;;26.04;58.45;98232.30;1681097;83;28097;-89
2021/06/19 07:29:49;;;;;;;6.42;4.30;;;;;;;26.15;58.38;98237.02;1683930;83;28037;-88
2021/06/19 07:32:16;;;;;;;5.90;4.77;;;;;;;26.21;58.24;98238.86;1681373;83;28037;-89
2021/06/19 07:34:47;;;;;;;6.10;4.30;;;;;;;26.29;58.14;98235.68;1676646;83;28132;-89
2021/06/19 07:37:14;;;;;;;;;;;;;;;26.40;58.06;98233.67;1697612;83;28099;-89
2021/06/19 07:39:40;;;;;;;4.75;3.98;;;;;;;26.48;57.95;98235.59;1684267;84;20330;-89
2021/06/19 07:42:13;;;;;;;6.60;4.78;;;;;;;26.53;57.68;98232.26;1690642;83;28048;-88
2021/06/19 07:44:39;;;;;;;6.25;4.25;;;;;;;26.57;57.40;98239.66;1681628;83;28124;-89
2021/06/19 07:47:08;;;;;;;7.05;4.62;;;;;;;26.64;57.32;98236.95;1685609;83;28085;-88
2021/06/19 07:49:38;;;;;;;5.80;4.67;;;;;;;26.71;57.11;98237.75;1689417;83;28205;-88
2021/06/19 07:52:05;;;;;;;8.05;4.10;;;;;;;26.76;56.83;98232.56;1684699;83;28153;-89
2021/06/19 07:54:37;;;;;;;4.30;3.90;;;;;;;26.81;56.47;98227.89;1681557;83;28147;-88
2021/06/19 07:57:02;;;;;;;4.53;4.00;;;;;;;26.85;56.17;98229.09;1678523;84;28167;-89
2021/06/19 07:59:35;;;;;;;6.22;4.30;;;;;;;26.93;55.89;98228.37;1686963;83;28122;-89
2021/06/19 08:02:08;;;;;;;3.80;3.42;;;;;;;26.99;55.27;98223.48;1663506;85;28089;-89
2021/06/19 08:04:40;;;;;;;5.08;3.65;;;;;;;27.05;54.83;98225.81;1670609;84;28084;-89
2021/06/19 08:07:07;;;;;;;4.65;3.35;;;;;;;27.11;54.45;98222.27;1682588;84;28038;-89
2021/06/19 08:09:33;;;;;;;;;;;;;;;27.17;53.91;98217.34;1690458;84;22932;-89
2021/06/19 08:12:06;;;;;;;;;;;;;;;27.20;53.23;98214.23;1662694;85;26854;-89
2021/06/19 08:14:37;;;;;;;;;;;;;;;27.28;53.06;98215.28;1690293;83;24408;-89
2021/06/19 08:17:08;;;;;;;4.78;4.00;;;;;;;27.37;52.67;98211.83;1680880;83;26645;-89
2021/06/19 08:19:39;;;;;;;6.03;4.17;;;;;;;27.44;52.35;98216.08;1666009;84;28064;-89
2021/06/19 08:22:14;;;;;;;5.15;3.98;;;;;;;27.51;52.22;98217.92;1668199;85;28212;-89
2021/06/19 08:24:49;;;;;;;6.75;3.80;;;;;;;27.60;52.14;98217.45;1668938;85;28177;-87
2021/06/19 08:27:26;;;;;;;8.50;4.42;;;;;;;27.70;52.09;98220.45;1666112;84;28099;-86
2021/06/19 08:29:53;;;;;;;5.55;3.50;;;;;;;27.80;51.88;98223.45;1668320;85;28162;-86
2021/06/19 08:32:22;;;;;;;4.17;3.52;;;;;;;27.87;51.58;98220.70;1669269;85;28144;-86
2021/06/19 08:34:55;;;;;;;4.37;3.72;;;;;;;27.94;51.26;98227.34;1670549;83;28083;-90
2021/06/19 08:37:26;;;;;;;7.45;4.47;;;;;;;28.02;51.04;98225.72;1669841;84;28076;-90
2021/06/19 08:39:58;;;;;;;8.45;4.05;;;;;;;28.07;50.69;98221.31;1668342;85;28093;-86
2021/06/19 08:42:26;;;;;;;4.33;3.87;;;;;;;28.11;50.51;98221.16;1665844;85;28107;-86
2021/06/19 08:44:57;;;;;;;6.25;4.22;;;;;;;28.14;50.14;98223.96;1671007;84;28139;-85
2021/06/19 08:47:37;;;;;;;4.40;3.70;;;;;;;28.21;50.05;98222.00;1668786;84;28106;-86
2021/06/19 08:50:13;;;;;;;5.35;4.50;;;;;;;28.24;49.79;98226.95;1669098;84;28119;-87
2021/06/19 08:52:41;;;;;;;5.50;4.03;;;;;;;28.29;49.73;98224.41;1667544;85;28094;-86
2021/06/19 08:55:11;;;;;;;6.97;4.22;;;;;;;28.39;49.69;98220.66;1665525;85;28091;-87
2021/06/19 08:57:38;;;;;;;5.28;3.87;;;;;;;28.44;49.53;98215.41;1668613;84;28077;-86
2021/06/19 09:00:13;;;;;;;6.92;4.75;;;;;;;28.54;49.42;98214.86;1666300;84;28052;-87
2021/06/19 09:02:48;;;;;;;7.00;4.67;;;;;;;28.64;49.37;98215.97;1669317;84;28083;-86
2021/06/19 09:05:17;;;;;;;5.45;4.58;;;;;;;28.70;49.22;98215.06;1666798;85;28105;-86
2021/06/19 09:07:52;;;;;;;6.90;4.90;;;;;;;28.75;49.11;98217.09;1668922;83;28080;-86
2021/06/19 09:10:31;;;;;;;4.35;3.95;;;;;;;28.76;48.85;98213.88;1668996;84;28091;-86
2021/06/19 09:13:13;;;;;;;5.37;4.87;;;;;;;28.82;48.81;98211.62;1672495;84;28188;-87
2021/06/19 09:15:47;;;;;;;5.45;4.60;;;;;;;28.85;48.55;98211.18;1667145;85;28126;-87
2021/06/19 09:18:28;;;;;;;5.35;4.00;;;;;;;28.90;48.41;98207.27;1673711;83;28158;-87
2021/06/19 09:20:58;;;;;;;6.60;4.40;;;;;;;28.88;48.07;98214.22;1681983;84;28057;-87
2021/06/19 09:23:38;;;;;;;7.28;4.42;;;;;;;28.85;47.83;98215.22;1682710;83;28028;-87
2021/06/19 09:26:13;;;;;;;5.12;4.50;;;;;;;28.81;47.55;98212.14;1684170;83;28089;-87
2021/06/19 09:29:09;;;;;;;4.85;4.35;;;;;;;28.86;47.54;98218.22;1684342;83;28124;-88
2021/06/19 09:31:41;;;;;;;6.00;4.75;;;;;;;28.95;47.52;98210.92;1683830;84;28008;-87
2021/06/19 09:34:17;;;;;;;6.78;4.97;;;;;;;28.96;47.21;98215.78;1669725;85;28019;-87
2021/06/19 09:36:57;;;;;;;;;;;;;;;28.95;47.11;98213.61;1682287;83;28130;-88
2021/06/19 09:39:32;;;;;;;5.90;5.30;;;;;;;28.99;46.98;98214.78;1688941;83;22075;-89
2021/06/19 09:42:04;;;;;;;5.33;4.72;;;;;;;29.09;46.97;98215.05;1683665;83;28030;-89
2021/06/19 09:44:50;;;;;;;6.75;4.95;;;;;;;29.08;46.69;98208.53;1680951;83;28141;-90
2021/06/19 09:47:49;;;;;;;7.12;5.70;;;;;;;29.09;46.46;98210.17;1675390;84;28075;-89
2021/06/19 09:50:21;;;;;;;7.58;5.72;;;;;;;29.10;46.36;98211.30;1684090;84;28075;-90
2021/06/19 09:52:53;;;;;;;9.73;5.20;;;;;;;29.17;46.34;98203.13;1684546;84;28089;-89
2021/06/19 09:55:59;;;;;;;7.08;5.60;;;;;;;29.25;46.41;98206.81;1681894;84;28070;-89
2021/06/19 09:58:59;;;;;;;9.90;5.90;;;;;;;29.23;46.19;98206.23;1683175;83;28022;-89
2021/06/19 10:01:37;;;;;;;6.47;5.15;;;;;;;29.25;46.27;98200.59;1649340;84;28110;-88
2021/06/19 10:04:16;;;;;;;6.97;5.50;;;;;;;29.26;46.26;98202.24;1688232;83;28200;-89
2021/06/19 10:06:58;;;;;;;8.00;6.08;;;;;;;29.27;46.33;98200.67;1682801;84;28094;-88
2021/06/19 10:09:27;;;;;;;6.03;5.42;;;;;;;29.29;46.42;98197.23;1687336;83;28052;-89
2021/06/19 10:12:02;;;;;;;6.22;4.92;;;;;;;29.28;46.42;98194.76;1684226;83;28074;-89
2021/06/19 10:14:34;;;;;;;6.37;4.83;;;;;;;29.21;46.33;98197.55;1674240;83;28120;-89
2021/06/19 10:17:01;;;;;;;6.25;4.60;;;;;;;29.20;46.21;98194.55;1686142;83;28095;-89
2021/06/19 10:19:28;;;;;;;7.03;5.08;;;;;;;29.24;46.25;98200.33;1663762;83;28081;-88
2021/06/19 10:21:57;;;;;;;5.58;4.95;;;;;;;29.27;46.05;98199.84;1656964;84;28515;-89
2021/06/19 10:24:31;;;;;;;5.65;4.50;;;;;;;29.27;45.75;98199.84;1663973;83;28171;-89
2021/06/19 10:27:05;;;;;;;5.15;4.60;;;;;;;29.30;45.69;98196.15;1658955;83;28147;-88
2021/06/19 10:29:35;;;;;;;5.20;4.70;;;;;;;29.33;45.66;98190.34;1656770;83;28102;-89
2021/06/19 10:32:04;;;;;;;5.12;4.45;;;;;;;29.35;45.51;98185.52;1654183;84;28167;-89
2021/06/19 10:34:32;;;;;;;5.08;4.53;;;;;;;29.37;45.31;98192.03;1659141;84;28082;-88
2021/06/19 10:37:10;;;;;;;6.95;4.40;;;;;;;29.37;45.23;98185.30;1657332;83;28093;-89
2021/06/19 10:39:43;;;;;;;6.22;4.83;;;;;;;29.36;45.06;98183.64;1653216;84;28099;-88
2021/06/19 10:42:29;;;;;;;6.33;4.05;;;;;;;29.37;44.81;98180.72;1662589;84;28163;-88
2021/06/19 10:45:08;;;;;;;5.33;4.53;;;;;;;29.37;44.50;98179.91;1643976;85;28086;-89
2021/06/19 10:48:09;;;;;;;4.97;4.37;;;;;;;29.42;44.45;98179.49;1671255;84;28045;-89
2021/06/19 10:50:38;;;;;;;4.65;4.10;;;;;;;29.48;44.17;98173.69;1675871;85;28057;-90
2021/06/19 10:53:10;;;;;;;5.33;4.20;;;;;;;29.56;44.18;98168.48;1665334;84;28154;-86
2021/06/19 10:55:44;;;;;;;5.90;4.30;;;;;;;29.57;43.95;98168.23;1673181;84;28100;-87
2021/06/19 10:58:25;;;;;;;6.15;4.35;;;;;;;29.58;43.74;98167.70;1670746;85;28194;-87
2021/06/19 11:01:03;;;;;;;5.03;4.00;;;;;;;29.59;43.68;98167.48;1668926;84;28077;-87
2021/06/19 11:03:51;;;;;;;5.60;4.03;;;;;;;29.61;43.59;98160.51;1672081;85;28094;-87
2021/06/19 11:06:26;;;;;;;5.80;3.87;;;;;;;29.68;43.48;98168.75;1655525;85;28112;-86
2021/06/19 11:08:58;;;;;;;3.50;3.20;;;;;;;29.68;43.09;98167.93;1674237;83;28174;-87
2021/06/19 11:11:59;;;;;;;4.03;3.62;;;;;;;29.74;43.01;98166.47;1675130;85;28079;-88
2021/06/19 11:14:44;;;;;;;5.35;3.67;;;;;;;29.78;42.54;98160.91;1669241;84;28067;-88
2021/06/19 11:17:25;;;;;;;3.92;3.52;;;;;;;29.85;42.41;98158.89;1668036;85;28091;-89
2021/06/19 11:19:59;;;;;;;3.13;2.83;;;;;;;29.90;42.02;98160.90;1678323;83;28133;-88
2021/06/19 11:22:34;;;;;;;4.62;2.90;;;;;;;29.82;41.44;98159.38;1682570;83;42393;-88
2021/06/19 11:25:15;;;;;;;3.37;3.08;;;;;;;29.81;41.08;98151.52;1681978;83;28117;-88
2021/06/19 11:28:02;;;;;;;3.50;2.45;;;;;;;29.86;40.91;98152.97;1681718;84;28082;-88
2021/06/19 11:30:42;;;;;;;4.37;3.25;;;;;;;29.89;40.43;98153.30;1680648;83;28125;-88
2021/06/19 11:33:25;;;;;;;3.00;2.80;;;;;;;29.97;40.25;98152.16;1685275;83;28150;-88
2021/06/19 11:35:59;;;;;;;3.35;2.58;;;;;;;29.98;40.12;98152.45;1685646;83;28077;-89
2021/06/19 11:38:45;;;;;;;6.05;3.52;;;;;;;29.93;39.65;98146.95;1683129;83;27998;-88
2021/06/19 11:41:14;;;;;;;3.58;3.15;;;;;;;29.89;39.58;98150.60;1682386;84;28085;-89
2021/06/19 11:43:41;;;;;;;3.20;2.80;;;;;;;29.88;39.60;98142.24;1688498;83;28184;-90
2021/06/19 11:46:08;;;;;;;3.58;2.95;;;;;;;29.94;39.73;98136.45;1682990;83;28092;-89
2021/06/19 11:48:49;;;;;;;6.67;2.83;;;;;;;29.95;39.56;98131.32;1690522;83;28087;-89
2021/06/19 11:51:18;;;;;;;3.70;2.85;;;;;;;29.97;39.46;98127.05;1686552;83;28487;-89
2021/06/19 11:53:44;;;;;;;3.45;2.45;;;;;;;29.95;39.24;98128.63;1688185;84;28147;-88
2021/06/19 11:56:14;;;;;;;3.27;2.98;;;;;;;29.90;38.95;98123.12;1687488;83;28134;-89